createdAt,value
2023-04-23T00:00:59.601Z,1002.21
2023-04-23T00:02:00.521Z,1002.19
2023-04-23T00:03:01.482Z,1002.17
2023-04-23T00:04:02.116Z,1002.19
2023-04-23T00:05:02.790Z,1002.19
2023-04-23T00:06:03.240Z,1002.19
2023-04-23T00:07:04.154Z,1002.19
2023-04-23T00:08:05.036Z,1002.19
2023-04-23T00:09:05.929Z,1002.20
2023-04-23T00:10:06.811Z,1002.21
2023-04-23T00:11:07.735Z,1002.21
2023-04-23T00:12:08.686Z,1002.21
2023-04-23T00:13:09.540Z,1002.20
2023-04-23T00:14:10.429Z,1002.21
2023-04-23T00:15:11.316Z,1002.22
2023-04-23T00:16:12.212Z,1002.23
2023-04-23T00:17:13.113Z,1002.22
2023-04-23T00:18:13.997Z,1002.22
2023-04-23T00:19:14.891Z,1002.22
2023-04-23T00:20:15.779Z,1002.27
2023-04-23T00:21:16.669Z,1002.26
2023-04-23T00:22:17.565Z,1002.29
2023-04-23T00:23:18.527Z,1002.29
2023-04-23T00:24:19.418Z,1002.32
2023-04-23T00:25:20.335Z,1002.32
2023-04-23T00:26:21.250Z,1002.33
2023-04-23T00:27:22.331Z,1002.32
2023-04-23T00:28:22.726Z,1002.33
2023-04-23T00:29:23.613Z,1002.32
2023-04-23T00:30:24.493Z,1002.29
2023-04-23T00:31:25.403Z,1002.28
2023-04-23T00:32:26.385Z,1002.26
2023-04-23T00:33:27.249Z,1002.24
2023-04-23T00:34:28.151Z,1002.25
2023-04-23T00:35:29.042Z,1002.25
2023-04-23T00:36:29.951Z,1002.26
2023-04-23T00:37:30.953Z,1002.26
2023-04-23T00:38:31.392Z,1002.24
2023-04-23T00:39:32.293Z,1002.21
2023-04-23T00:40:33.189Z,1002.17
2023-04-23T00:41:34.134Z,1002.15
2023-04-23T00:42:34.987Z,1002.15
2023-04-23T00:43:35.871Z,1002.17
2023-04-23T00:44:36.779Z,1002.18
2023-04-23T00:45:37.748Z,1002.19
2023-04-23T00:46:38.648Z,1002.18
2023-04-23T00:47:39.552Z,1002.17
2023-04-23T00:48:40.414Z,1002.17
2023-04-23T00:49:41.309Z,1002.15
2023-04-23T00:50:42.220Z,1002.14
2023-04-23T00:51:43.130Z,1002.12
2023-04-23T00:52:44.001Z,1002.13
2023-04-23T00:53:44.894Z,1002.14
2023-04-23T00:54:45.776Z,1002.15
2023-04-23T00:55:46.702Z,1002.16
2023-04-23T00:56:47.599Z,1002.18
2023-04-23T00:57:48.466Z,1002.21
2023-04-23T00:58:49.344Z,1002.22
2023-04-23T00:59:50.262Z,1002.24
2023-04-23T01:00:51.202Z,1002.25
2023-04-23T01:01:52.091Z,1002.26
2023-04-23T01:02:53.391Z,1002.27
2023-04-23T01:03:54.079Z,1002.26
2023-04-23T01:04:54.705Z,1002.24
2023-04-23T01:05:55.592Z,1002.22
2023-04-23T01:06:56.495Z,1002.21
2023-04-23T01:07:57.442Z,1002.20
2023-04-23T01:08:58.376Z,1002.20
2023-04-23T01:09:59.261Z,1002.21
2023-04-23T01:11:00.192Z,1002.21
2023-04-23T01:12:01.086Z,1002.20
2023-04-23T01:13:01.959Z,1002.21
2023-04-23T01:14:02.838Z,1002.21
2023-04-23T01:15:03.717Z,1002.19
2023-04-23T01:16:04.631Z,1002.17
2023-04-23T01:17:05.567Z,1002.17
2023-04-23T01:18:06.438Z,1002.16
2023-04-23T01:19:07.304Z,1002.17
2023-04-23T01:20:08.194Z,1002.17
2023-04-23T01:21:09.098Z,1002.17
2023-04-23T01:22:09.980Z,1002.17
2023-04-23T01:23:10.892Z,1002.20
2023-04-23T01:24:11.813Z,1002.24
2023-04-23T01:25:12.695Z,1002.28
2023-04-23T01:26:13.607Z,1002.31
2023-04-23T01:27:14.513Z,1002.33
2023-04-23T01:28:15.374Z,1002.31
2023-04-23T01:29:16.281Z,1002.30
2023-04-23T01:30:17.169Z,1002.29
2023-04-23T01:31:18.069Z,1002.29
2023-04-23T01:32:19.011Z,1002.30
2023-04-23T01:33:19.900Z,1002.31
2023-04-23T01:34:20.794Z,1002.34
2023-04-23T01:35:21.691Z,1002.37
2023-04-23T01:36:22.574Z,1002.41
2023-04-23T01:37:23.476Z,1002.44
2023-04-23T01:38:24.349Z,1002.48
2023-04-23T01:39:25.947Z,1002.49
2023-04-23T01:40:26.372Z,1002.51
2023-04-23T01:41:26.790Z,1002.50
2023-04-23T01:42:27.682Z,1002.49
2023-04-23T01:43:28.547Z,1002.47
2023-04-23T01:44:29.436Z,1002.47
2023-04-23T01:45:30.322Z,1002.48
2023-04-23T01:46:31.282Z,1002.50
2023-04-23T01:47:32.170Z,1002.52
2023-04-23T01:48:33.032Z,1002.52
2023-04-23T01:49:33.915Z,1002.52
2023-04-23T01:50:34.832Z,1002.52
2023-04-23T01:51:35.720Z,1002.53
2023-04-23T01:52:36.603Z,1002.54
2023-04-23T01:53:37.482Z,1002.53
2023-04-23T01:54:38.574Z,1002.51
2023-04-23T01:55:39.247Z,1002.47
2023-04-23T01:56:40.130Z,1002.45
2023-04-23T01:57:41.041Z,1002.44
2023-04-23T01:58:41.894Z,1002.44
2023-04-23T01:59:42.779Z,1002.44
2023-04-23T02:00:43.695Z,1002.45
2023-04-23T02:01:44.677Z,1002.45
2023-04-23T02:02:45.706Z,1002.43
2023-04-23T02:03:46.363Z,1002.41
2023-04-23T02:04:46.835Z,1002.39
2023-04-23T02:05:47.750Z,1002.39
2023-04-23T02:06:48.646Z,1002.38
2023-04-23T02:07:49.520Z,1002.37
2023-04-23T02:08:50.417Z,1002.34
2023-04-23T02:09:51.315Z,1002.33
2023-04-23T02:10:52.200Z,1002.32
2023-04-23T02:11:53.156Z,1002.31
2023-04-23T02:12:53.618Z,1002.31
2023-04-23T02:13:54.515Z,1002.33
2023-04-23T02:14:55.375Z,1002.35
2023-04-23T02:15:56.325Z,1002.36
2023-04-23T02:16:57.207Z,1002.38
2023-04-23T02:17:58.109Z,1002.39
2023-04-23T02:18:58.985Z,1002.40
2023-04-23T02:19:59.880Z,1002.41
2023-04-23T02:21:00.811Z,1002.41
2023-04-23T02:22:01.699Z,1002.41
2023-04-23T02:23:02.592Z,1002.40
2023-04-23T02:24:03.505Z,1002.39
2023-04-23T02:25:04.372Z,1002.37
2023-04-23T02:26:05.303Z,1002.36
2023-04-23T02:27:06.189Z,1002.34
2023-04-23T02:28:07.107Z,1002.34
2023-04-23T02:29:07.966Z,1002.36
2023-04-23T02:30:08.854Z,1002.41
2023-04-23T02:31:09.770Z,1002.46
2023-04-23T02:32:10.638Z,1002.49
2023-04-23T02:33:11.535Z,1002.49
2023-04-23T02:34:12.445Z,1002.48
2023-04-23T02:35:13.429Z,1002.48
2023-04-23T02:36:14.364Z,1002.48
2023-04-23T02:37:15.232Z,1002.47
2023-04-23T02:38:16.138Z,1002.46
2023-04-23T02:39:17.061Z,1002.46
2023-04-23T02:40:17.974Z,1002.48
2023-04-23T02:41:18.892Z,1002.48
2023-04-23T02:42:19.804Z,1002.48
2023-04-23T02:43:20.720Z,1002.46
2023-04-23T02:44:21.581Z,1002.42
2023-04-23T02:45:22.512Z,1002.38
2023-04-23T02:46:23.427Z,1002.36
2023-04-23T02:47:24.317Z,1002.35
2023-04-23T02:48:24.807Z,1002.35
2023-04-23T02:49:25.691Z,1002.36
2023-04-23T02:50:26.631Z,1002.39
2023-04-23T02:51:27.513Z,1002.41
2023-04-23T02:52:28.427Z,1002.45
2023-04-23T02:53:29.328Z,1002.50
2023-04-23T02:54:30.197Z,1002.54
2023-04-23T02:55:31.110Z,1002.55
2023-04-23T02:56:31.996Z,1002.53
2023-04-23T02:57:32.914Z,1002.51
2023-04-23T02:58:33.777Z,1002.48
2023-04-23T02:59:34.669Z,1002.47
2023-04-23T03:00:35.564Z,1002.48
2023-04-23T03:01:36.451Z,1002.50
2023-04-23T03:02:37.412Z,1002.51
2023-04-23T03:03:38.055Z,1002.50
2023-04-23T03:04:38.608Z,1002.48
2023-04-23T03:05:39.033Z,1002.47
2023-04-23T03:06:39.901Z,1002.47
2023-04-23T03:07:40.813Z,1002.48
2023-04-23T03:08:41.707Z,1002.49
2023-04-23T03:09:42.565Z,1002.50
2023-04-23T03:10:43.482Z,1002.52
2023-04-23T03:11:44.373Z,1002.53
2023-04-23T03:12:45.263Z,1002.54
2023-04-23T03:13:46.175Z,1002.53
2023-04-23T03:14:47.037Z,1002.51
2023-04-23T03:15:48.004Z,1002.52
2023-04-23T03:16:48.875Z,1002.53
2023-04-23T03:17:49.807Z,1002.53
2023-04-23T03:18:50.672Z,1002.52
2023-04-23T03:19:51.583Z,1002.52
2023-04-23T03:20:52.472Z,1002.51
2023-04-23T03:21:53.363Z,1002.52
2023-04-23T03:22:54.243Z,1002.52
2023-04-23T03:23:55.130Z,1002.51
2023-04-23T03:24:56.031Z,1002.50
2023-04-23T03:25:56.928Z,1002.49
2023-04-23T03:26:57.815Z,1002.47
2023-04-23T03:27:58.702Z,1002.45
2023-04-23T03:28:59.639Z,1002.44
2023-04-23T03:30:00.493Z,1002.43
2023-04-23T03:31:01.449Z,1002.42
2023-04-23T03:32:02.355Z,1002.41
2023-04-23T03:33:03.285Z,1002.39
2023-04-23T03:34:04.148Z,1002.37
2023-04-23T03:35:05.022Z,1002.36
2023-04-23T03:36:05.937Z,1002.37
2023-04-23T03:37:06.824Z,1002.37
2023-04-23T03:38:07.710Z,1002.37
2023-04-23T03:39:08.604Z,1002.37
2023-04-23T03:40:09.523Z,1002.37
2023-04-23T03:41:10.508Z,1002.36
2023-04-23T03:42:10.925Z,1002.36
2023-04-23T03:43:11.800Z,1002.36
2023-04-23T03:44:12.721Z,1002.36
2023-04-23T03:45:13.599Z,1002.35
2023-04-23T03:46:14.503Z,1002.35
2023-04-23T03:47:15.392Z,1002.35
2023-04-23T03:48:16.277Z,1002.35
2023-04-23T03:49:17.177Z,1002.34
2023-04-23T03:50:18.078Z,1002.31
2023-04-23T03:51:18.962Z,1002.29
2023-04-23T03:52:19.851Z,1002.27
2023-04-23T03:53:20.745Z,1002.25
2023-04-23T03:54:21.627Z,1002.24
2023-04-23T03:55:22.545Z,1002.25
2023-04-23T03:56:24.606Z,1002.26
2023-04-23T03:57:24.293Z,1002.27
2023-04-23T03:58:25.200Z,1002.26
2023-04-23T03:59:26.080Z,1002.24
2023-04-23T04:00:26.972Z,1002.21
2023-04-23T04:01:27.857Z,1002.19
2023-04-23T04:02:28.897Z,1002.19
2023-04-23T04:03:29.669Z,1002.18
2023-04-23T04:04:30.435Z,1002.18
2023-04-23T04:05:31.044Z,1002.18
2023-04-23T04:06:31.446Z,1002.19
2023-04-23T04:07:32.340Z,1002.19
2023-04-23T04:08:33.233Z,1002.19
2023-04-23T04:09:34.101Z,1002.21
2023-04-23T04:10:35.027Z,1002.22
2023-04-23T04:11:35.902Z,1002.24
2023-04-23T04:12:36.806Z,1002.24
2023-04-23T04:13:37.698Z,1002.23
2023-04-23T04:14:38.647Z,1002.21
2023-04-23T04:15:39.534Z,1002.19
2023-04-23T04:16:40.413Z,1002.18
2023-04-23T04:17:41.328Z,1002.17
2023-04-23T04:18:42.199Z,1002.16
2023-04-23T04:19:43.106Z,1002.16
2023-04-23T04:20:44.021Z,1002.16
2023-04-23T04:21:44.907Z,1002.16
2023-04-23T04:22:45.786Z,1002.16
2023-04-23T04:23:46.666Z,1002.16
2023-04-23T04:24:47.715Z,1002.14
2023-04-23T04:25:48.234Z,1002.13
2023-04-23T04:26:49.115Z,1002.12
2023-04-23T04:27:50.018Z,1002.12
2023-04-23T04:28:50.909Z,1002.13
2023-04-23T04:29:51.844Z,1002.13
2023-04-23T04:30:52.718Z,1002.14
2023-04-23T04:31:53.733Z,1002.15
2023-04-23T04:32:54.186Z,1002.16
2023-04-23T04:33:55.073Z,1002.16
2023-04-23T04:34:55.981Z,1002.17
2023-04-23T04:35:56.900Z,1002.18
2023-04-23T04:36:57.782Z,1002.18
2023-04-23T04:37:58.668Z,1002.18
2023-04-23T04:38:59.563Z,1002.18
2023-04-23T04:40:00.461Z,1002.18
2023-04-23T04:41:01.421Z,1002.19
2023-04-23T04:42:02.302Z,1002.19
2023-04-23T04:43:03.187Z,1002.19
2023-04-23T04:44:04.070Z,1002.19
2023-04-23T04:45:04.993Z,1002.19
2023-04-23T04:46:07.491Z,1002.19
2023-04-23T04:47:06.699Z,1002.18
2023-04-23T04:48:07.118Z,1002.19
2023-04-23T04:49:07.994Z,1002.20
2023-04-23T04:50:08.883Z,1002.20
2023-04-23T04:51:09.788Z,1002.19
2023-04-23T04:52:10.704Z,1002.19
2023-04-23T04:53:11.615Z,1002.18
2023-04-23T04:54:12.462Z,1002.15
2023-04-23T04:55:13.351Z,1002.16
2023-04-23T04:56:14.259Z,1002.17
2023-04-23T04:57:15.149Z,1002.20
2023-04-23T04:58:16.031Z,1002.21
2023-04-23T04:59:16.916Z,1002.22
2023-04-23T05:00:17.829Z,1002.23
2023-04-23T05:01:18.750Z,1002.25
2023-04-23T05:02:19.702Z,1002.25
2023-04-23T05:03:20.738Z,1002.26
2023-04-23T05:04:21.251Z,1002.27
2023-04-23T05:05:22.149Z,1002.26
2023-04-23T05:06:23.066Z,1002.24
2023-04-23T05:07:23.947Z,1002.23
2023-04-23T05:08:24.836Z,1002.24
2023-04-23T05:09:25.720Z,1002.25
2023-04-23T05:10:26.601Z,1002.25
2023-04-23T05:11:27.512Z,1002.24
2023-04-23T05:12:28.397Z,1002.24
2023-04-23T05:13:29.290Z,1002.25
2023-04-23T05:14:30.173Z,1002.24
2023-04-23T05:15:31.206Z,1002.23
2023-04-23T05:16:32.089Z,1002.23
2023-04-23T05:17:32.962Z,1002.23
2023-04-23T05:18:33.840Z,1002.24
2023-04-23T05:19:34.742Z,1002.24
2023-04-23T05:20:35.657Z,1002.25
2023-04-23T05:21:36.556Z,1002.26
2023-04-23T05:22:37.426Z,1002.26
2023-04-23T05:23:38.312Z,1002.27
2023-04-23T05:24:39.507Z,1002.28
2023-04-23T05:25:40.076Z,1002.27
2023-04-23T05:26:40.963Z,1002.24
2023-04-23T05:27:41.861Z,1002.22
2023-04-23T05:28:42.755Z,1002.21
2023-04-23T05:29:43.650Z,1002.20
2023-04-23T05:30:44.675Z,1002.20
2023-04-23T05:31:45.569Z,1002.22
2023-04-23T05:32:46.495Z,1002.24
2023-04-23T05:33:50.350Z,1002.26
2023-04-23T05:34:48.189Z,1002.28
2023-04-23T05:35:49.095Z,1002.29
2023-04-23T05:36:49.972Z,1002.27
2023-04-23T05:37:50.863Z,1002.26
2023-04-23T05:38:51.748Z,1002.24
2023-04-23T05:39:52.650Z,1002.23
2023-04-23T05:40:53.545Z,1002.23
2023-04-23T05:41:54.459Z,1002.22
2023-04-23T05:42:55.341Z,1002.20
2023-04-23T05:43:56.241Z,1002.17
2023-04-23T05:44:57.113Z,1002.14
2023-04-23T05:45:58.121Z,1002.13
2023-04-23T05:46:58.977Z,1002.14
2023-04-23T05:47:59.895Z,1002.18
2023-04-23T05:49:00.762Z,1002.21
2023-04-23T05:50:01.651Z,1002.22
2023-04-23T05:51:02.610Z,1002.22
2023-04-23T05:52:03.468Z,1002.21
2023-04-23T05:53:04.360Z,1002.19
2023-04-23T05:54:05.241Z,1002.18
2023-04-23T05:55:06.126Z,1002.19
2023-04-23T05:56:07.026Z,1002.20
2023-04-23T05:57:07.929Z,1002.20
2023-04-23T05:58:08.813Z,1002.20
2023-04-23T05:59:09.698Z,1002.18
2023-04-23T06:00:10.579Z,1002.16
2023-04-23T06:01:11.504Z,1002.15
2023-04-23T06:02:12.445Z,1002.16
2023-04-23T06:03:13.449Z,1002.17
2023-04-23T06:04:14.128Z,1002.19
2023-04-23T06:05:14.890Z,1002.19
2023-04-23T06:06:15.450Z,1002.20
2023-04-23T06:07:16.359Z,1002.21
2023-04-23T06:08:17.262Z,1002.21
2023-04-23T06:09:18.166Z,1002.19
2023-04-23T06:10:19.023Z,1002.15
2023-04-23T06:11:19.938Z,1002.14
2023-04-23T06:12:20.842Z,1002.16
2023-04-23T06:13:21.729Z,1002.15
2023-04-23T06:14:22.632Z,1002.18
2023-04-23T06:15:23.505Z,1002.18
2023-04-23T06:16:24.484Z,1002.18
2023-04-23T06:17:25.362Z,1002.17
2023-04-23T06:18:26.236Z,1002.17
2023-04-23T06:19:27.122Z,1002.17
2023-04-23T06:20:28.015Z,1002.15
2023-04-23T06:21:28.920Z,1002.13
2023-04-23T06:22:29.799Z,1002.15
2023-04-23T06:23:30.692Z,1002.14
2023-04-23T06:24:31.582Z,1002.12
2023-04-23T06:25:32.461Z,1002.10
2023-04-23T06:26:33.386Z,1002.07
2023-04-23T06:27:34.273Z,1002.06
2023-04-23T06:28:35.143Z,1002.00
2023-04-23T06:29:36.048Z,1001.94
2023-04-23T06:30:36.969Z,1001.93
2023-04-23T06:31:37.993Z,1001.95
2023-04-23T06:32:38.380Z,1001.94
2023-04-23T06:33:39.292Z,1001.93
2023-04-23T06:34:49.840Z,1001.90
2023-04-23T06:35:41.940Z,1001.91
2023-04-23T06:36:41.832Z,1001.94
2023-04-23T06:37:42.713Z,1001.92
2023-04-23T06:38:43.610Z,1001.87
2023-04-23T06:39:44.522Z,1001.89
2023-04-23T06:40:45.434Z,1001.88
2023-04-23T06:41:46.319Z,1001.86
2023-04-23T06:42:47.228Z,1001.82
2023-04-23T06:43:48.090Z,1001.82
2023-04-23T06:44:49.012Z,1001.82
2023-04-23T06:45:49.897Z,1001.83
2023-04-23T06:46:50.899Z,1001.83
2023-04-23T06:47:51.296Z,1001.81
2023-04-23T06:48:52.182Z,1001.79
2023-04-23T06:49:53.095Z,1001.78
2023-04-23T06:50:53.984Z,1001.79
2023-04-23T06:51:56.991Z,1001.79
2023-04-23T06:52:55.560Z,1001.74
2023-04-23T06:53:56.447Z,1001.75
2023-04-23T06:54:57.346Z,1001.71
2023-04-23T06:55:58.298Z,1001.68
2023-04-23T06:56:59.208Z,1001.70
2023-04-23T06:58:00.142Z,1001.70
2023-04-23T06:59:01.061Z,1001.69
2023-04-23T07:00:01.946Z,1001.67
2023-04-23T07:01:02.942Z,1001.66
2023-04-23T07:02:03.824Z,1001.66
2023-04-23T07:03:04.874Z,1001.65
2023-04-23T07:04:05.355Z,1001.63
2023-04-23T07:05:06.264Z,1001.62
2023-04-23T07:06:07.171Z,1001.63
2023-04-23T07:07:08.048Z,1001.63
2023-04-23T07:08:08.939Z,1001.63
2023-04-23T07:09:09.824Z,1001.65
2023-04-23T07:10:10.747Z,1001.61
2023-04-23T07:11:11.624Z,1001.58
2023-04-23T07:12:12.543Z,1001.58
2023-04-23T07:13:13.414Z,1001.59
2023-04-23T07:14:14.318Z,1001.57
2023-04-23T07:15:15.266Z,1001.57
2023-04-23T07:16:16.182Z,1001.56
2023-04-23T07:17:17.057Z,1001.56
2023-04-23T07:18:17.952Z,1001.54
2023-04-23T07:19:18.897Z,1001.53
2023-04-23T07:20:19.814Z,1001.54
2023-04-23T07:21:20.695Z,1001.50
2023-04-23T07:22:21.584Z,1001.49
2023-04-23T07:23:22.479Z,1001.51
2023-04-23T07:24:23.353Z,1001.50
2023-04-23T07:25:24.406Z,1001.53
2023-04-23T07:26:24.853Z,1001.55
2023-04-23T07:27:25.754Z,1001.53
2023-04-23T07:28:26.650Z,1001.52
2023-04-23T07:29:27.529Z,1001.50
2023-04-23T07:30:28.461Z,1001.49
2023-04-23T07:31:29.428Z,1001.46
2023-04-23T07:32:29.877Z,1001.46
2023-04-23T07:33:30.725Z,1001.44
2023-04-23T07:34:31.645Z,1001.44
2023-04-23T07:35:32.542Z,1001.45
2023-04-23T07:36:33.495Z,1001.45
2023-04-23T07:37:34.385Z,1001.46
2023-04-23T07:38:35.276Z,1001.43
2023-04-23T07:39:36.174Z,1001.42
2023-04-23T07:40:37.117Z,1001.42
2023-04-23T07:41:38.008Z,1001.43
2023-04-23T07:42:38.902Z,1001.44
2023-04-23T07:43:39.782Z,1001.40
2023-04-23T07:44:40.790Z,1001.42
2023-04-23T07:45:41.328Z,1001.36
2023-04-23T07:46:41.723Z,1001.33
2023-04-23T07:47:42.734Z,1001.37
2023-04-23T07:48:43.161Z,1001.36
2023-04-23T07:49:44.350Z,1001.32
2023-04-23T07:50:44.680Z,1001.33
2023-04-23T07:51:45.530Z,1001.33
2023-04-23T07:52:46.422Z,1001.32
2023-04-23T07:53:47.299Z,1001.31
2023-04-23T07:54:48.220Z,1001.31
2023-04-23T07:55:49.104Z,1001.36
2023-04-23T07:56:49.986Z,1001.39
2023-04-23T07:57:50.879Z,1001.37
2023-04-23T07:58:51.764Z,1001.40
2023-04-23T07:59:52.702Z,1001.29
2023-04-23T08:00:53.601Z,1001.25
2023-04-23T08:01:54.484Z,1001.27
2023-04-23T08:02:55.526Z,1001.26
2023-04-23T08:03:59.057Z,1001.26
2023-04-23T08:04:56.901Z,1001.28
2023-04-23T08:05:57.337Z,1001.30
2023-04-23T08:06:58.221Z,1001.31
2023-04-23T08:07:59.111Z,1001.30
2023-04-23T08:09:00.018Z,1001.31
2023-04-23T08:10:00.931Z,1001.30
2023-04-23T08:11:01.878Z,1001.28
2023-04-23T08:12:02.730Z,1001.28
2023-04-23T08:13:03.625Z,1001.31
2023-04-23T08:14:04.505Z,1001.29
2023-04-23T08:15:05.442Z,1001.28
2023-04-23T08:16:06.349Z,1001.29
2023-04-23T08:17:07.238Z,1001.29
2023-04-23T08:18:08.125Z,1001.30
2023-04-23T08:19:08.999Z,1001.28
2023-04-23T08:20:10.171Z,1001.24
2023-04-23T08:21:10.570Z,1001.26
2023-04-23T08:22:11.485Z,1001.26
2023-04-23T08:23:12.438Z,1001.26
2023-04-23T08:24:12.871Z,1001.25
2023-04-23T08:25:13.802Z,1001.28
2023-04-23T08:26:14.698Z,1001.27
2023-04-23T08:27:15.617Z,1001.30
2023-04-23T08:28:16.503Z,1001.30
2023-04-23T08:29:17.449Z,1001.31
2023-04-23T08:30:18.344Z,1001.31
2023-04-23T08:31:26.398Z,1001.30
2023-04-23T08:32:21.062Z,1001.29
2023-04-23T08:33:21.062Z,1001.28
2023-04-23T08:34:21.662Z,1001.30
2023-04-23T08:35:22.081Z,1001.28
2023-04-23T08:36:22.978Z,1001.26
2023-04-23T08:37:30.925Z,1001.26
2023-04-23T08:38:25.655Z,1001.26
2023-04-23T08:39:25.525Z,1001.25
2023-04-23T08:40:26.435Z,1001.25
2023-04-23T08:41:27.339Z,1001.24
2023-04-23T08:42:28.218Z,1001.23
2023-04-23T08:43:29.099Z,1001.20
2023-04-23T08:44:30.029Z,1001.17
2023-04-23T08:45:31.019Z,1001.16
2023-04-23T08:46:31.497Z,1001.16
2023-04-23T08:47:32.469Z,1001.15
2023-04-23T08:48:32.953Z,1001.20
2023-04-23T08:49:33.934Z,1001.18
2023-04-23T08:50:34.462Z,1001.18
2023-04-23T08:51:34.902Z,1001.17
2023-04-23T08:52:35.827Z,1001.17
2023-04-23T08:53:38.478Z,1001.12
2023-04-23T08:54:37.264Z,1001.08
2023-04-23T08:55:38.237Z,1001.10
2023-04-23T08:56:39.147Z,1001.07
2023-04-23T08:57:40.069Z,1001.07
2023-04-23T08:58:40.973Z,1001.07
2023-04-23T08:59:42.210Z,1001.09
2023-04-23T09:00:43.750Z,1001.09
2023-04-23T09:01:43.729Z,1001.11
2023-04-23T09:02:44.748Z,1001.10
2023-04-23T09:03:45.509Z,1001.13
2023-04-23T09:04:46.051Z,1001.20
2023-04-23T09:05:46.731Z,1001.10
2023-04-23T09:06:47.676Z,1001.10
2023-04-23T09:07:48.600Z,1001.13
2023-04-23T09:08:49.482Z,1001.09
2023-04-23T09:09:58.071Z,1001.13
2023-04-23T09:10:50.954Z,1001.08
2023-04-23T09:11:54.194Z,1001.04
2023-04-23T09:12:53.562Z,1001.03
2023-04-23T09:13:53.459Z,1000.99
2023-04-23T09:14:54.423Z,1000.96
2023-04-23T09:15:55.348Z,1000.96
2023-04-23T09:16:56.374Z,1000.97
2023-04-23T09:17:57.381Z,1000.95
2023-04-23T09:18:57.475Z,1000.97
2023-04-23T09:19:58.384Z,1000.99
2023-04-23T09:20:59.288Z,1000.96
2023-04-23T09:22:00.171Z,1000.96
2023-04-23T09:23:01.093Z,1000.95
2023-04-23T09:24:01.983Z,1000.95
2023-04-23T09:25:02.901Z,1000.96
2023-04-23T09:26:03.795Z,1000.94
2023-04-23T09:27:04.687Z,1000.92
2023-04-23T09:28:05.585Z,1000.94
2023-04-23T09:29:06.458Z,1000.88
2023-04-23T09:30:07.368Z,1000.89
2023-04-23T09:31:08.266Z,1000.88
2023-04-23T09:32:09.200Z,1000.89
2023-04-23T09:33:10.116Z,1000.88
2023-04-23T09:34:11.032Z,1000.86
2023-04-23T09:35:11.929Z,1000.84
2023-04-23T09:36:12.817Z,1000.83
2023-04-23T09:37:13.700Z,1000.82
2023-04-23T09:38:14.588Z,1000.77
2023-04-23T09:39:15.495Z,1000.77
2023-04-23T09:40:16.409Z,1000.77
2023-04-23T09:41:17.301Z,1000.78
2023-04-23T09:42:18.196Z,1000.77
2023-04-23T09:43:19.080Z,1000.84
2023-04-23T09:44:19.973Z,1000.75
2023-04-23T09:45:20.884Z,1000.76
2023-04-23T09:46:21.789Z,1000.74
2023-04-23T09:47:25.072Z,1000.71
2023-04-23T09:48:23.604Z,1000.73
2023-04-23T09:49:24.499Z,1000.69
2023-04-23T09:50:25.402Z,1000.65
2023-04-23T09:51:26.282Z,1000.67
2023-04-23T09:52:27.164Z,1000.69
2023-04-23T09:53:28.054Z,1000.63
2023-04-23T09:54:28.945Z,1000.67
2023-04-23T09:55:29.843Z,1000.66
2023-04-23T09:56:30.740Z,1000.68
2023-04-23T09:57:31.631Z,1000.64
2023-04-23T09:58:32.530Z,1000.65
2023-04-23T09:59:46.679Z,1000.63
2023-04-23T10:00:35.258Z,1000.65
2023-04-23T10:01:35.231Z,1000.62
2023-04-23T10:02:35.755Z,1000.60
2023-04-23T10:03:36.385Z,1000.61
2023-04-23T10:04:36.934Z,1000.60
2023-04-23T10:05:55.546Z,1000.61
2023-04-23T10:06:47.043Z,1000.62
2023-04-23T10:07:40.073Z,1000.62
2023-04-23T10:08:39.955Z,1000.59
2023-04-23T10:09:41.061Z,1000.61
2023-04-23T10:10:55.205Z,1000.64
2023-04-23T10:11:43.294Z,1000.62
2023-04-23T10:12:54.221Z,1000.64
2023-04-23T10:13:44.956Z,1000.64
2023-04-23T10:14:44.848Z,1000.65
2023-04-23T10:15:45.791Z,1000.63
2023-04-23T10:16:49.215Z,1000.64
2023-04-23T10:17:47.307Z,1000.67
2023-04-23T10:18:48.205Z,1000.67
2023-04-23T10:19:49.148Z,1000.67
2023-04-23T10:20:50.086Z,1000.65
2023-04-23T10:21:54.903Z,1000.64
2023-04-23T10:22:52.772Z,1000.59
2023-04-23T10:23:52.672Z,1000.65
2023-04-23T10:24:53.579Z,1000.67
2023-04-23T10:25:54.501Z,1000.68
2023-04-23T10:27:02.948Z,1000.67
2023-04-23T10:27:56.374Z,1000.67
2023-04-23T10:28:57.281Z,1000.67
2023-04-23T10:29:58.219Z,1000.62
2023-04-23T10:30:59.115Z,1000.61
2023-04-23T10:31:59.710Z,1000.63
2023-04-23T10:33:00.671Z,1000.56
2023-04-23T10:34:01.621Z,1000.55
2023-04-23T10:35:02.596Z,1000.52
2023-04-23T10:36:03.033Z,1000.57
2023-04-23T10:37:03.912Z,1000.58
2023-04-23T10:38:04.795Z,1000.53
2023-04-23T10:39:05.681Z,1000.51
2023-04-23T10:40:06.607Z,1000.50
2023-04-23T10:41:07.498Z,1000.50
2023-04-23T10:42:08.439Z,1000.51
2023-04-23T10:43:09.403Z,1000.48
2023-04-23T10:44:09.843Z,1000.48
2023-04-23T10:45:22.584Z,1000.47
2023-04-23T10:46:12.683Z,1000.44
2023-04-23T10:47:12.563Z,1000.45
2023-04-23T10:48:13.463Z,1000.44
2023-04-23T10:49:14.394Z,1000.40
2023-04-23T10:50:15.514Z,1000.42
2023-04-23T10:52:02.379Z,1000.48
2023-04-23T10:52:20.706Z,1000.46
2023-04-23T10:53:17.460Z,1000.44
2023-04-23T10:54:18.420Z,1000.42
2023-04-23T10:55:19.334Z,1000.39
2023-04-23T10:56:20.350Z,1000.36
2023-04-23T10:57:21.259Z,1000.34
2023-04-23T10:58:22.185Z,1000.34
2023-04-23T10:59:23.099Z,1000.31
2023-04-23T11:00:24.002Z,1000.29
2023-04-23T11:01:24.972Z,1000.31
2023-04-23T11:02:26.316Z,1000.29
2023-04-23T11:03:26.942Z,1000.28
2023-04-23T11:04:27.600Z,1000.26
2023-04-23T11:05:28.105Z,1000.26
2023-04-23T11:06:28.990Z,1000.26
2023-04-23T11:07:29.880Z,1000.23
2023-04-23T11:08:30.792Z,1000.23
2023-04-23T11:09:31.692Z,1000.27
2023-04-23T11:10:32.742Z,1000.28
2023-04-23T11:11:33.181Z,1000.29
2023-04-23T11:12:34.104Z,1000.33
2023-04-23T11:13:35.010Z,1000.31
2023-04-23T11:14:35.894Z,1000.31
2023-04-23T11:15:36.955Z,1000.28
2023-04-23T11:16:37.407Z,1000.26
2023-04-23T11:17:38.345Z,1000.25
2023-04-23T11:18:39.274Z,1000.22
2023-04-23T11:19:40.399Z,1000.25
2023-04-23T11:20:41.021Z,1000.24
2023-04-23T11:21:41.507Z,1000.20
2023-04-23T11:22:42.406Z,1000.20
2023-04-23T11:23:43.291Z,1000.17
2023-04-23T11:24:44.246Z,1000.18
2023-04-23T11:25:44.724Z,1000.16
2023-04-23T11:26:45.670Z,1000.16
2023-04-23T11:27:46.574Z,1000.14
2023-04-23T11:28:47.466Z,1000.13
2023-04-23T11:29:48.411Z,1000.10
2023-04-23T11:30:48.889Z,1000.09
2023-04-23T11:32:01.754Z,1000.07
2023-04-23T11:32:51.818Z,1000.06
2023-04-23T11:33:51.273Z,1000.04
2023-04-23T11:34:52.158Z,1000.03
2023-04-23T11:35:53.151Z,999.99
2023-04-23T11:36:54.024Z,1000.01
2023-04-23T11:37:54.973Z,999.99
2023-04-23T11:38:55.850Z,999.98
2023-04-23T11:39:56.740Z,1000.01
2023-04-23T11:40:57.671Z,999.94
2023-04-23T11:41:58.592Z,999.96
2023-04-23T11:42:59.545Z,999.91
2023-04-23T11:44:00.247Z,999.89
2023-04-23T11:45:01.237Z,999.86
2023-04-23T11:46:02.212Z,999.85
2023-04-23T11:47:03.112Z,999.83
2023-04-23T11:48:04.088Z,999.82
2023-04-23T11:49:04.953Z,999.80
2023-04-23T11:50:05.920Z,999.79
2023-04-23T11:51:06.827Z,999.78
2023-04-23T11:52:07.708Z,999.81
2023-04-23T11:53:08.609Z,999.60
2023-04-23T11:54:09.541Z,999.73
2023-04-23T11:55:10.542Z,999.74
2023-04-23T11:56:11.016Z,999.73
2023-04-23T11:57:11.921Z,999.79
2023-04-23T11:58:12.822Z,999.75
2023-04-23T11:59:13.733Z,999.75
2023-04-23T12:00:14.670Z,999.75
2023-04-23T12:01:15.545Z,999.76
2023-04-23T12:02:16.495Z,999.72
2023-04-23T12:03:17.608Z,999.70
2023-04-23T12:04:18.186Z,999.70
2023-04-23T12:05:18.866Z,999.69
2023-04-23T12:06:19.734Z,999.69
2023-04-23T12:07:26.438Z,999.68
2023-04-23T12:08:22.372Z,999.67
2023-04-23T12:09:22.255Z,999.67
2023-04-23T12:10:23.185Z,999.69
2023-04-23T12:11:24.070Z,999.66
2023-04-23T12:12:24.962Z,999.67
2023-04-23T12:13:25.848Z,999.65
2023-04-23T12:14:26.742Z,999.65
2023-04-23T12:15:27.667Z,999.62
2023-04-23T12:16:28.656Z,999.63
2023-04-23T12:17:29.139Z,999.60
2023-04-23T12:18:29.996Z,999.61